Time;durP1;ratioP1;P1;durP2;ratioP2;P2;SDS_P1;SDS_P2;PMS_P1;PMS_P2;Temp;Humidity;BMP_temperature;BMP_pressure;BME280_temperature;BME280_humidity;BME280_pressure;Samples;Min_cycle;Max_cycle;Signal;HPM_P1;HPM_P2
2021/08/27 00:02:41;;;;;;;19.40;15.85;;;;;;;19.41;99.36;100066.09;1708370;84;21256;-54
2021/08/27 00:05:49;;;;;;;16.40;14.63;;;;;;;19.43;99.13;100055.58;1767068;81;21149;-54
2021/08/27 00:08:54;;;;;;;15.38;13.50;;;;;;;19.41;98.92;100043.89;1773943;79;21354;-54
2021/08/27 00:12:02;;;;;;;17.07;14.60;;;;;;;19.35;98.63;100040.13;1773897;81;21366;-54
2021/08/27 00:15:11;;;;;;;17.17;14.78;;;;;;;19.28;98.53;100029.70;1772572;79;21503;-55
2021/08/27 00:18:17;;;;;;;15.78;14.07;;;;;;;19.26;98.94;100027.14;1774002;79;21200;-55
2021/08/27 00:21:24;;;;;;;18.05;14.90;;;;;;;19.23;98.85;100034.53;1773584;81;21339;-55
2021/08/27 00:24:29;;;;;;;21.40;14.73;;;;;;;19.21;98.98;100031.17;1742136;79;21348;-53
2021/08/27 00:27:35;;;;;;;20.82;15.90;;;;;;;19.20;99.04;100029.47;1761139;81;21346;-54
2021/08/27 00:30:40;;;;;;;17.32;15.03;;;;;;;19.16;99.00;100037.13;1747036;81;21335;-55
2021/08/27 00:33:45;;;;;;;16.48;14.73;;;;;;;19.15;99.23;100049.32;1758423;79;21244;-56
2021/08/27 00:36:52;;;;;;;17.10;15.03;;;;;;;19.16;99.36;100042.14;1758773;81;21338;-56
2021/08/27 00:39:58;;;;;;;19.60;14.38;;;;;;;19.14;99.14;100038.75;1760045;80;21182;-56
2021/08/27 00:43:05;;;;;;;18.87;15.70;;;;;;;19.12;99.29;100035.93;1759377;81;21584;-54
2021/08/27 00:46:10;;;;;;;17.82;14.35;;;;;;;19.05;98.97;100034.66;1753725;81;21210;-55
2021/08/27 00:49:18;;;;;;;18.57;15.88;;;;;;;18.99;98.89;100042.55;1748142;80;21346;-55
2021/08/27 00:52:24;;;;;;;16.95;15.15;;;;;;;18.98;99.15;100046.95;1762044;81;21951;-55
2021/08/27 00:55:29;;;;;;;17.52;15.63;;;;;;;18.98;99.39;100056.09;1742314;81;21366;-55
2021/08/27 00:58:35;;;;;;;16.82;15.00;;;;;;;19.01;99.80;100067.28;1742620;81;21501;-56
2021/08/27 01:01:42;;;;;;;19.70;15.15;;;;;;;19.03;100.00;100065.95;1747970;81;21181;-56
2021/08/27 01:04:54;;;;;;;18.67;15.08;;;;;;;19.06;100.00;100068.23;1737451;81;21225;-54
2021/08/27 01:08:05;;;;;;;17.80;14.10;;;;;;;19.06;99.95;100061.83;1737830;82;21379;-56
2021/08/27 01:11:16;;;;;;;20.52;13.75;;;;;;;18.97;99.24;100054.42;1739773;81;21273;-55
2021/08/27 01:14:31;;;;;;;19.57;14.50;;;;;;;18.89;99.10;100048.36;1742216;80;21351;-56
2021/08/27 01:17:46;;;;;;;15.45;13.72;;;;;;;18.86;99.38;100048.84;1716868;82;21208;-55
2021/08/27 01:21:26;;;;;;;15.63;14.00;;;;;;;18.83;99.25;100040.45;1723602;81;21268;-55
2021/08/27 01:24:36;;;;;;;21.25;14.95;;;;;;;18.77;98.86;100037.26;1738456;81;21367;-55
2021/08/27 01:27:41;;;;;;;20.12;15.70;;;;;;;18.68;98.56;100035.05;1732333;82;21181;-55
2021/08/27 01:31:17;;;;;;;19.82;15.68;;;;;;;18.62;98.63;100035.45;1731198;83;21184;-55
2021/08/27 01:34:49;;;;;;;17.82;14.83;;;;;;;18.60;98.71;100043.70;1732332;83;21894;-56
2021/08/27 01:37:57;;;;;;;20.12;14.87;;;;;;;18.58;98.81;100037.02;1739972;82;21321;-59
2021/08/27 01:41:02;;;;;;;17.82;14.85;;;;;;;18.58;98.93;100036.16;1740164;82;21384;-56
2021/08/27 01:44:13;;;;;;;16.77;14.20;;;;;;;18.59;98.93;100023.45;1731669;82;21342;-55
2021/08/27 01:47:20;;;;;;;16.60;14.07;;;;;;;18.61;98.91;100021.82;1740135;82;21171;-55
2021/08/27 01:50:26;;;;;;;16.25;14.55;;;;;;;18.59;98.71;100022.59;1731867;83;21421;-55
2021/08/27 01:53:36;;;;;;;18.02;14.28;;;;;;;18.56;98.62;100016.13;1732076;83;21322;-55
2021/08/27 01:56:43;;;;;;;16.07;14.20;;;;;;;18.50;98.60;100011.01;1732125;83;21823;-56
2021/08/27 01:59:49;;;;;;;17.35;14.33;;;;;;;18.48;98.90;100006.77;1731961;83;21401;-56
2021/08/27 02:02:56;;;;;;;16.45;14.18;;;;;;;18.48;99.14;100020.09;1732147;82;21354;-56
2021/08/27 02:06:03;;;;;;;18.05;14.98;;;;;;;18.50;99.33;100022.09;1767783;81;21556;-57
2021/08/27 02:09:08;;;;;;;19.12;15.35;;;;;;;18.53;99.51;100025.78;1777525;79;21744;-56
2021/08/27 02:12:15;;;;;;;16.93;15.08;;;;;;;18.53;99.29;100032.71;1776779;80;21708;-56
2021/08/27 02:15:21;;;;;;;16.27;14.38;;;;;;;18.54;99.40;100039.94;1769124;79;21410;-55
2021/08/27 02:18:27;;;;;;;19.17;14.43;;;;;;;18.54;99.31;100039.94;1767353;79;21959;-56
2021/08/27 02:21:37;;;;;;;17.90;15.90;;;;;;;18.56;99.43;100038.31;1768839;81;21223;-56
2021/08/27 02:25:06;;;;;;;18.42;15.28;;;;;;;18.54;99.32;100034.39;1767278;79;21382;-56
2021/08/27 02:28:12;;;;;;;20.43;15.88;;;;;;;18.52;99.36;100033.77;1742655;80;21232;-56
2021/08/27 02:31:18;;;;;;;19.75;16.07;;;;;;;18.49;99.39;100030.66;1739062;81;21430;-55
2021/08/27 02:34:24;;;;;;;18.70;15.60;;;;;;;18.50;99.65;100039.26;1741786;81;21762;-56
2021/08/27 02:37:29;;;;;;;19.00;16.62;;;;;;;18.50;99.75;100040.64;1748623;81;21185;-56
2021/08/27 02:40:35;;;;;;;18.50;15.60;;;;;;;18.48;99.82;100046.42;1739824;80;21386;-56
2021/08/27 02:43:41;;;;;;;18.95;15.95;;;;;;;18.48;99.84;100051.97;1742309;81;21367;-57
2021/08/27 02:46:47;;;;;;;18.57;16.62;;;;;;;18.46;99.78;100051.36;1748425;81;21849;-57
2021/08/27 02:49:52;;;;;;;18.23;15.80;;;;;;;18.45;99.62;100048.28;1743189;81;21272;-56
2021/08/27 02:53:08;;;;;;;19.45;16.48;;;;;;;18.43;99.49;100056.52;1739263;81;21394;-56
2021/08/27 02:56:26;;;;;;;19.85;15.63;;;;;;;18.43;99.57;100059.28;1737347;82;21386;-57
2021/08/27 02:59:33;;;;;;;18.75;16.27;;;;;;;18.42;99.53;100067.30;1749250;80;21288;-56
2021/08/27 03:02:38;;;;;;;18.70;15.90;;;;;;;18.44;99.24;100070.14;1737578;82;21379;-56
2021/08/27 03:05:48;;;;;;;22.30;16.85;;;;;;;18.43;98.95;100074.00;1737773;81;21347;-56
2021/08/27 03:08:57;;;;;;;20.40;17.98;;;;;;;18.44;98.87;100075.68;1756206;80;21231;-57
2021/08/27 03:12:08;;;;;;;22.58;18.23;;;;;;;18.45;98.75;100077.39;1757392;81;21706;-57
2021/08/27 03:15:14;;;;;;;22.90;18.07;;;;;;;18.43;98.38;100082.31;1737571;81;21252;-57
2021/08/27 03:18:28;;;;;;;21.30;18.07;;;;;;;18.42;98.18;100071.47;1740981;81;21224;-57
2021/08/27 03:21:52;;;;;;;25.10;18.10;;;;;;;18.42;98.30;100080.64;1739260;81;21366;-57
2021/08/27 03:25:05;;;;;;;20.77;17.05;;;;;;;18.46;98.43;100089.30;1740075;81;21845;-58
2021/08/27 03:28:12;;;;;;;18.52;16.52;;;;;;;18.49;98.43;100093.84;1747292;80;21287;-58
2021/08/27 03:31:17;;;;;;;25.37;17.75;;;;;;;18.53;98.37;100090.08;1747686;81;21288;-59
2021/08/27 03:34:24;;;;;;;20.30;17.80;;;;;;;18.57;98.32;100092.14;1737557;81;21272;-58
2021/08/27 03:37:30;;;;;;;22.58;17.00;;;;;;;18.62;98.27;100092.81;1737637;82;21339;-57
2021/08/27 03:40:36;;;;;;;21.97;18.57;;;;;;;18.66;98.19;100097.66;1729552;82;21370;-57
2021/08/27 03:43:42;;;;;;;21.12;17.73;;;;;;;18.67;97.83;100099.36;1737433;81;21193;-58
2021/08/27 03:46:47;;;;;;;20.20;17.92;;;;;;;18.70;97.86;100103.05;1737802;82;21402;-57
2021/08/27 03:49:53;;;;;;;22.75;18.15;;;;;;;18.75;97.94;100105.97;1750362;80;21346;-57
2021/08/27 03:52:59;;;;;;;20.23;17.98;;;;;;;18.81;97.95;100110.56;1741004;81;21486;-57
2021/08/27 03:56:09;;;;;;;22.62;18.82;;;;;;;18.90;98.00;100120.80;1738540;81;22214;-57
2021/08/27 03:59:15;;;;;;;21.93;19.57;;;;;;;18.97;97.91;100114.59;1741682;81;21232;-57
2021/08/27 04:02:21;;;;;;;22.52;19.07;;;;;;;19.05;97.71;100117.03;1745776;81;21825;-57
2021/08/27 04:05:29;;;;;;;21.57;18.82;;;;;;;19.14;97.38;100113.68;1738238;81;21892;-57
2021/08/27 04:08:33;;;;;;;21.25;18.95;;;;;;;19.23;97.10;100119.19;1746592;80;21323;-57
2021/08/27 04:11:39;;;;;;;21.80;19.17;;;;;;;19.30;96.77;100119.97;1747169;81;21181;-56
2021/08/27 04:14:45;;;;;;;23.47;20.70;;;;;;;19.33;96.24;100113.64;1751999;80;21212;-57
2021/08/27 04:17:50;;;;;;;28.98;20.45;;;;;;;19.36;95.99;100123.70;1785926;80;21389;-57
2021/08/27 04:20:55;;;;;;;25.77;20.70;;;;;;;19.44;95.85;100125.31;1758409;81;21216;-58
2021/08/27 04:24:00;;;;;;;24.67;21.90;;;;;;;19.48;95.69;100120.42;1748222;80;21223;-58
2021/08/27 04:27:05;;;;;;;25.60;22.65;;;;;;;19.53;95.56;100120.55;1785735;80;21347;-57
2021/08/27 04:30:12;;;;;;;28.12;21.93;;;;;;;19.56;95.32;100124.77;1753990;80;21224;-57
2021/08/27 04:33:18;;;;;;;26.82;21.17;;;;;;;19.62;95.18;100123.27;1749597;80;21371;-58
2021/08/27 04:36:24;;;;;;;27.07;22.75;;;;;;;19.69;95.23;100126.78;1748190;82;21195;-58
2021/08/27 04:39:28;;;;;;;23.50;21.02;;;;;;;19.73;95.06;100130.75;1773637;79;21421;-58
2021/08/27 04:42:34;;;;;;;23.87;21.02;;;;;;;19.75;94.66;100136.06;1754798;80;21342;-58
2021/08/27 04:45:39;;;;;;;29.65;21.70;;;;;;;19.76;94.80;100130.80;1768787;80;21256;-58
2021/08/27 04:48:47;;;;;;;25.82;22.22;;;;;;;19.80;94.57;100132.88;1770566;79;21761;-58
2021/08/27 04:51:54;;;;;;;23.98;20.02;;;;;;;19.86;94.51;100138.00;1769357;80;21189;-59
2021/08/27 04:55:00;;;;;;;24.57;20.90;;;;;;;19.89;94.33;100135.59;1737274;81;21292;-59
2021/08/27 04:58:05;;;;;;;24.87;21.60;;;;;;;19.95;94.15;100138.78;1736983;82;21748;-59
2021/08/27 05:01:12;;;;;;;24.23;21.60;;;;;;;20.00;93.91;100134.73;1765404;81;21430;-58
2021/08/27 05:04:18;;;;;;;24.32;21.73;;;;;;;20.08;93.67;100149.66;1776476;79;21323;-58
2021/08/27 05:07:25;;;;;;;25.25;22.52;;;;;;;20.14;93.51;100146.46;1735026;82;21874;-57
2021/08/27 05:10:32;;;;;;;25.23;22.07;;;;;;;20.19;93.30;100152.14;1777769;78;21188;-58
2021/08/27 05:13:38;;;;;;;25.70;21.62;;;;;;;20.21;92.86;100150.83;1808380;78;21228;-57
2021/08/27 05:16:47;;;;;;;24.67;21.90;;;;;;;20.26;92.56;100153.72;1808442;79;21172;-57
2021/08/27 05:19:52;;;;;;;24.65;21.62;;;;;;;20.34;92.11;100159.45;1800402;78;21923;-58
2021/08/27 05:22:59;;;;;;;23.67;21.23;;;;;;;20.41;91.69;100156.83;1808666;79;21749;-58
2021/08/27 05:26:05;;;;;;;25.27;21.25;;;;;;;20.45;90.72;100166.38;1751969;81;21346;-60
2021/08/27 05:29:11;;;;;;;23.32;20.85;;;;;;;20.54;90.21;100164.05;1715227;83;21358;-58
2021/08/27 05:32:16;;;;;;;24.85;22.25;;;;;;;20.64;89.89;100164.27;1734310;80;21331;-59
2021/08/27 05:35:22;;;;;;;24.37;21.73;;;;;;;20.73;89.58;100168.34;1708744;83;21378;-58
2021/08/27 05:38:28;;;;;;;27.98;22.82;;;;;;;20.81;89.36;100166.57;1704334;84;21271;-58
2021/08/27 05:41:36;;;;;;;25.27;22.25;;;;;;;20.92;89.05;100169.85;1725521;82;21199;-59
2021/08/27 05:44:43;;;;;;;25.68;22.77;;;;;;;21.02;88.51;100170.09;1742762;82;21262;-58
2021/08/27 05:47:50;;;;;;;27.02;22.10;;;;;;;21.13;88.05;100166.95;1729013;82;21467;-58
2021/08/27 05:50:57;;;;;;;26.02;22.80;;;;;;;21.22;87.86;100166.30;1703350;84;21216;-58
2021/08/27 05:54:03;;;;;;;25.12;21.12;;;;;;;21.30;87.53;100171.45;1737507;82;21192;-58
2021/08/27 05:57:08;;;;;;;25.10;22.35;;;;;;;21.37;87.01;100169.91;1703655;84;21168;-59
2021/08/27 06:00:15;;;;;;;27.40;22.95;;;;;;;21.40;86.37;100166.63;1705127;83;21589;-60
2021/08/27 06:03:20;;;;;;;27.40;23.18;;;;;;;21.45;86.52;100178.72;1706165;83;21350;-59
2021/08/27 06:06:28;;;;;;;25.45;22.05;;;;;;;21.48;86.49;100174.03;1706414;83;21346;-59
2021/08/27 06:09:34;;;;;;;23.80;21.20;;;;;;;21.51;86.53;100180.48;1703922;83;21275;-57
2021/08/27 06:12:41;;;;;;;24.50;21.90;;;;;;;21.54;85.72;100184.70;1663230;85;21917;-58
2021/08/27 06:15:47;;;;;;;26.97;22.73;;;;;;;21.53;85.25;100183.02;1719587;83;21374;-58
2021/08/27 06:18:54;;;;;;;26.42;22.90;;;;;;;21.52;84.93;100183.56;1694358;84;21391;-59
2021/08/27 06:22:00;;;;;;;27.60;23.87;;;;;;;21.50;84.53;100184.92;1740917;82;21709;-58
2021/08/27 06:25:07;;;;;;;25.88;23.07;;;;;;;21.50;84.42;100186.31;1693930;84;21217;-58
2021/08/27 06:28:15;;;;;;;29.27;24.12;;;;;;;21.51;84.37;100193.56;1714441;82;21385;-57
2021/08/27 06:31:22;;;;;;;31.25;27.90;;;;;;;21.52;84.22;100187.73;1720461;79;21369;-58
2021/08/27 06:34:28;;;;;;;27.90;24.98;;;;;;;21.59;84.15;100194.55;1767835;80;21355;-58
2021/08/27 06:40:56;;;;;;;28.38;24.65;;;;;;;21.72;83.38;100190.04;1766782;81;21340;-56
2021/08/27 06:44:02;;;;;;;26.77;23.87;;;;;;;21.78;82.88;100188.52;1732739;83;21773;-58
2021/08/27 06:47:07;;;;;;;26.35;23.50;;;;;;;21.84;82.43;100194.46;1769402;79;21383;-58
2021/08/27 06:50:14;;;;;;;26.20;23.47;;;;;;;21.93;82.21;100193.47;1732668;82;21669;-59
2021/08/27 06:53:21;;;;;;;29.18;23.65;;;;;;;22.00;81.93;100199.19;1757247;80;21858;-58
2021/08/27 06:56:30;;;;;;;28.20;23.38;;;;;;;22.10;81.41;100198.51;1710552;82;21732;-57
2021/08/27 06:59:35;;;;;;;25.60;22.70;;;;;;;22.20;81.57;100196.70;1756751;80;21320;-59
2021/08/27 07:02:46;;;;;;;27.00;24.20;;;;;;;22.34;80.81;100193.02;1765433;80;21265;-57
2021/08/27 07:06:01;;;;;;;26.57;22.60;;;;;;;22.48;80.36;100199.92;1764367;80;21963;-57
2021/08/27 07:09:06;;;;;;;23.60;21.10;;;;;;;22.64;79.86;100199.06;1747611;80;21895;-57
2021/08/27 07:12:13;;;;;;;23.38;20.90;;;;;;;22.75;78.96;100209.80;1758894;79;21189;-56
2021/08/27 07:15:19;;;;;;;25.08;22.07;;;;;;;22.82;77.98;100210.42;1757401;81;21712;-56
2021/08/27 07:18:24;;;;;;;23.62;21.12;;;;;;;22.86;77.36;100213.02;1768238;79;21190;-56
2021/08/27 07:21:30;;;;;;;22.55;20.15;;;;;;;22.92;77.11;100213.36;1745167;80;22129;-56
2021/08/27 07:24:35;;;;;;;26.93;21.40;;;;;;;23.01;76.94;100222.41;1735783;81;21550;-55
2021/08/27 07:27:40;;;;;;;24.77;21.15;;;;;;;23.10;76.19;100221.41;1755970;81;21189;-57
2021/08/27 07:30:45;;;;;;;22.42;20.10;;;;;;;23.18;75.50;100232.95;1737360;80;21212;-56
2021/08/27 07:33:50;;;;;;;24.80;21.93;;;;;;;23.22;74.81;100231.33;1772824;79;21231;-56
2021/08/27 07:36:56;;;;;;;22.45;20.15;;;;;;;23.29;74.11;100236.76;1784067;79;21248;-55
2021/08/27 07:40:02;;;;;;;21.73;19.30;;;;;;;23.30;73.72;100231.45;1790342;79;21511;-55
2021/08/27 07:43:07;;;;;;;22.13;19.50;;;;;;;23.29;73.35;100229.77;1785200;79;21554;-54
2021/08/27 07:46:14;;;;;;;20.65;18.55;;;;;;;23.20;72.66;100220.11;1779901;79;21185;-55
2021/08/27 07:49:20;;;;;;;23.20;20.65;;;;;;;23.05;72.72;100219.95;1770351;80;21241;-55
2021/08/27 07:52:26;;;;;;;21.97;19.60;;;;;;;22.90;72.69;100224.78;1734884;82;21216;-56
2021/08/27 07:55:32;;;;;;;24.30;19.07;;;;;;;22.79;73.61;100229.95;1778511;79;21756;-56
2021/08/27 07:58:38;;;;;;;21.17;18.95;;;;;;;22.74;74.65;100231.27;1778577;79;21196;-56
2021/08/27 08:01:44;;;;;;;22.32;19.32;;;;;;;22.71;74.38;100239.31;1733754;81;21393;-56
2021/08/27 08:04:50;;;;;;;25.62;20.12;;;;;;;22.64;74.44;100237.28;1744789;81;21367;-58
2021/08/27 08:07:55;;;;;;;22.85;20.37;;;;;;;22.61;75.20;100233.61;1700348;82;21259;-55
2021/08/27 08:11:02;;;;;;;23.15;19.17;;;;;;;22.58;75.93;100234.95;1737380;82;21392;-55
2021/08/27 08:14:07;;;;;;;19.85;17.67;;;;;;;22.58;75.77;100235.52;1742210;81;21208;-56
2021/08/27 08:17:12;;;;;;;22.65;19.00;;;;;;;22.67;75.56;100230.64;1772972;79;21386;-55
2021/08/27 08:20:17;;;;;;;21.52;18.87;;;;;;;22.77;75.40;100229.93;1769102;80;21173;-58
2021/08/27 08:23:23;;;;;;;23.00;19.40;;;;;;;22.88;75.68;100233.14;1764126;81;21327;-55
2021/08/27 08:26:32;;;;;;;18.67;16.77;;;;;;;23.04;75.93;100237.25;1729835;82;21217;-56
2021/08/27 08:29:38;;;;;;;19.07;17.07;;;;;;;23.20;74.99;100232.69;1770597;79;21718;-56
2021/08/27 08:32:43;;;;;;;21.50;17.65;;;;;;;23.42;73.86;100240.55;1795876;79;21208;-57
2021/08/27 08:35:49;;;;;;;19.45;15.60;;;;;;;23.66;73.40;100234.90;1753328;81;21335;-56
2021/08/27 08:38:55;;;;;;;17.60;15.78;;;;;;;23.88;70.81;100236.23;1768998;80;21330;-56
2021/08/27 08:42:02;;;;;;;18.00;15.05;;;;;;;24.04;69.63;100238.09;1767423;80;21948;-56
2021/08/27 08:45:08;;;;;;;17.23;14.80;;;;;;;24.18;69.14;100238.75;1755576;79;21820;-57
2021/08/27 08:48:16;;;;;;;19.15;16.17;;;;;;;24.26;68.32;100246.64;1768489;79;21355;-57
2021/08/27 08:51:21;;;;;;;16.75;15.03;;;;;;;24.27;68.22;100247.50;1755351;79;21851;-57
2021/08/27 08:54:26;;;;;;;17.45;15.35;;;;;;;24.22;67.91;100251.11;1760295;80;21243;-57
2021/08/27 08:57:31;;;;;;;17.40;15.58;;;;;;;24.16;68.00;100257.78;1738814;81;21331;-58
2021/08/27 09:00:37;;;;;;;15.35;13.75;;;;;;;24.12;68.33;100262.78;1749561;80;21467;-57
2021/08/27 09:03:43;;;;;;;19.20;14.30;;;;;;;24.11;68.61;100267.52;1738244;82;21220;-57
2021/08/27 09:06:51;;;;;;;41.70;37.13;;;;;;;24.19;67.91;100264.23;1715210;83;21243;-56
2021/08/27 09:09:56;;;;;;;19.82;16.25;;;;;;;24.22;67.72;100263.70;1730286;82;21228;-56
2021/08/27 09:13:06;;;;;;;16.07;13.55;;;;;;;24.19;67.36;100271.23;1723183;82;21328;-58
2021/08/27 09:16:13;;;;;;;28.57;22.13;;;;;;;24.13;67.12;100271.45;1763473;81;21174;-56
2021/08/27 09:19:20;;;;;;;18.45;15.63;;;;;;;24.05;67.43;100276.98;1783035;79;21177;-57
2021/08/27 09:22:26;;;;;;;17.98;16.07;;;;;;;23.90;67.47;100269.80;1738791;81;21240;-57
2021/08/27 09:25:38;;;;;;;20.02;16.35;;;;;;;23.77;67.87;100277.80;1713948;82;21799;-58
2021/08/27 09:28:46;;;;;;;20.43;17.60;;;;;;;23.68;68.62;100273.22;1709270;82;21197;-56
2021/08/27 09:31:52;;;;;;;15.68;14.07;;;;;;;23.61;68.75;100270.64;1789043;79;21173;-57
2021/08/27 09:35:19;;;;;;;19.05;16.82;;;;;;;23.63;68.79;100259.19;1763984;80;21327;-57
2021/08/27 09:38:26;;;;;;;14.80;13.25;;;;;;;23.70;68.66;100271.02;1765267;81;21224;-56
2021/08/27 09:41:32;;;;;;;15.08;13.48;;;;;;;23.79;67.98;100276.95;1749735;79;21190;-56
2021/08/27 09:44:37;;;;;;;16.17;13.25;;;;;;;23.87;67.62;100274.53;1770193;79;21829;-56
2021/08/27 09:47:43;;;;;;;14.75;13.13;;;;;;;23.98;67.00;100283.34;1817666;79;21690;-58
2021/08/27 09:50:53;;;;;;;16.23;13.95;;;;;;;24.07;66.73;100283.13;1764570;81;21359;-56
2021/08/27 09:53:58;;;;;;;15.58;13.98;;;;;;;24.15;66.68;100282.64;1767577;80;21741;-57
2021/08/27 09:57:12;;;;;;;14.43;12.93;;;;;;;24.26;67.04;100281.63;1755361;81;21557;-57
2021/08/27 10:00:29;;;;;;;15.65;13.38;;;;;;;24.44;66.11;100283.16;1797077;78;21232;-56
2021/08/27 10:03:36;;;;;;;14.47;12.98;;;;;;;24.58;66.01;100282.43;1796966;79;21362;-56
2021/08/27 10:06:42;;;;;;;14.75;13.13;;;;;;;24.73;64.98;100283.12;1800027;79;21335;-56
2021/08/27 10:09:53;;;;;;;14.05;12.65;;;;;;;24.75;64.27;100290.12;1799421;79;21883;-57
2021/08/27 10:12:59;;;;;;;14.18;12.65;;;;;;;24.75;64.60;100289.30;1799686;79;21374;-55
2021/08/27 10:16:07;;;;;;;14.45;12.95;;;;;;;24.74;63.82;100287.60;1786559;79;21765;-55
2021/08/27 10:19:14;;;;;;;14.03;12.63;;;;;;;24.71;63.77;100294.59;1776705;79;21232;-56
2021/08/27 10:22:20;;;;;;;14.13;11.95;;;;;;;24.74;63.75;100294.05;1770305;80;21219;-56
2021/08/27 10:25:26;;;;;;;13.93;12.53;;;;;;;24.85;63.39;100297.75;1755054;79;21518;-56
2021/08/27 10:28:37;;;;;;;13.32;11.90;;;;;;;24.98;63.59;100295.88;1763388;80;21729;-57
2021/08/27 10:31:51;;;;;;;12.55;11.25;;;;;;;25.20;63.41;100306.34;1797916;79;21676;-58
2021/08/27 10:34:59;;;;;;;11.85;10.58;;;;;;;25.44;63.05;100294.14;1770020;80;21189;-57
2021/08/27 10:38:04;;;;;;;11.90;10.55;;;;;;;25.67;61.45;100300.09;1747454;79;21285;-56
2021/08/27 10:41:30;;;;;;;12.65;11.38;;;;;;;25.73;59.36;100300.97;1768037;80;21754;-57
2021/08/27 10:44:56;;;;;;;13.08;11.73;;;;;;;25.71;59.02;100297.59;1733508;82;21215;-57
2021/08/27 10:48:30;;;;;;;12.00;10.70;;;;;;;25.72;58.53;100304.91;1762160;80;21556;-58
2021/08/27 10:51:46;;;;;;;12.90;11.53;;;;;;;25.66;58.65;100307.38;1760398;80;21502;-56
2021/08/27 10:55:14;;;;;;;12.82;11.53;;;;;;;25.65;58.73;100307.97;1768771;79;21861;-56
2021/08/27 10:58:24;;;;;;;12.15;10.90;;;;;;;25.78;58.72;100307.41;1763199;80;22042;-55
2021/08/27 11:01:41;;;;;;;11.85;10.65;;;;;;;25.84;58.90;100305.48;1769029;80;21182;-59
2021/08/27 11:04:49;;;;;;;11.97;10.78;;;;;;;25.81;58.47;100312.50;1764034;80;21785;-58
2021/08/27 11:07:55;;;;;;;12.55;11.25;;;;;;;25.79;58.17;100318.08;1739187;82;21241;-57
2021/08/27 11:11:26;;;;;;;12.13;10.93;;;;;;;25.76;58.04;100320.05;1768782;80;21720;-57
2021/08/27 11:14:36;;;;;;;12.45;11.25;;;;;;;25.89;58.64;100306.89;1771214;80;21915;-56
2021/08/27 11:17:42;;;;;;;13.50;11.28;;;;;;;26.14;58.28;100305.55;1766933;80;21381;-56
2021/08/27 11:20:47;;;;;;;12.07;10.88;;;;;;;26.09;57.58;100312.56;1759569;81;21197;-56
2021/08/27 11:24:00;;;;;;;12.20;11.00;;;;;;;25.96;57.60;100302.69;1775146;80;21367;-57
2021/08/27 11:27:10;;;;;;;11.45;10.25;;;;;;;25.84;57.60;100304.08;1775787;81;21736;-57
2021/08/27 11:30:38;;;;;;;11.55;10.35;;;;;;;25.68;57.75;100306.01;1773921;80;21951;-55
2021/08/27 11:33:52;;;;;;;11.50;10.30;;;;;;;25.61;58.00;100300.39;1750507;80;21778;-57
2021/08/27 11:37:00;;;;;;;12.82;10.80;;;;;;;25.60;58.21;100295.88;1774258;79;21323;-57
2021/08/27 11:40:04;;;;;;;10.58;9.58;;;;;;;25.62;57.98;100284.69;1778575;79;21932;-57
2021/08/27 11:43:11;;;;;;;10.85;9.75;;;;;;;25.76;58.52;100290.59;1772670;79;21860;-57
2021/08/27 11:46:27;;;;;;;15.68;9.93;;;;;;;26.01;57.21;100278.03;1736673;82;21339;-57
2021/08/27 11:49:35;;;;;;;12.28;10.70;;;;;;;26.22;57.09;100267.96;1733177;81;21848;-57
2021/08/27 11:52:41;;;;;;;10.28;9.28;;;;;;;26.37;56.24;100260.92;1753143;81;21351;-58
2021/08/27 11:55:53;;;;;;;10.82;9.73;;;;;;;26.50;55.32;100261.48;1766990;79;21169;-57
2021/08/27 11:58:58;;;;;;;13.90;10.45;;;;;;;26.56;54.89;100263.97;1768835;79;21364;-57
2021/08/27 12:02:03;;;;;;;11.18;10.08;;;;;;;26.65;54.40;100255.30;1766666;79;21717;-59
2021/08/27 12:05:12;;;;;;;10.53;9.48;;;;;;;26.68;54.08;100260.35;1736460;81;21407;-58
2021/08/27 12:08:19;;;;;;;10.98;9.25;;;;;;;26.73;54.24;100256.13;1751941;81;21551;-58
2021/08/27 12:11:38;;;;;;;10.18;9.15;;;;;;;26.77;53.82;100264.81;1735719;81;21390;-58
2021/08/27 12:15:00;;;;;;;10.13;8.93;;;;;;;26.84;53.28;100267.63;1766976;78;21704;-57
2021/08/27 12:18:12;;;;;;;10.10;9.10;;;;;;;26.85;53.07;100266.48;1766661;80;21338;-57
2021/08/27 12:21:20;;;;;;;10.30;9.23;;;;;;;26.92;53.12;100270.40;1775319;79;21754;-58
2021/08/27 12:24:26;;;;;;;10.05;9.05;;;;;;;26.95;52.26;100265.61;1753415;79;21398;-56
2021/08/27 12:27:33;;;;;;;9.63;8.65;;;;;;;27.02;52.89;100271.78;1773237;79;21407;-57
2021/08/27 12:30:39;;;;;;;10.10;8.43;;;;;;;27.02;51.37;100272.61;1776132;79;21241;-57
2021/08/27 12:33:47;;;;;;;9.38;8.48;;;;;;;26.95;50.95;100273.48;1768099;80;21787;-57
2021/08/27 12:36:52;;;;;;;10.25;9.15;;;;;;;26.83;51.01;100279.97;1767156;80;21371;-57
2021/08/27 12:39:59;;;;;;;9.85;8.80;;;;;;;26.63;51.30;100279.98;1753163;80;21189;-57
2021/08/27 12:43:22;;;;;;;9.48;8.55;;;;;;;26.51;51.69;100277.20;1767845;79;21189;-60
2021/08/27 12:46:39;;;;;;;11.03;9.60;;;;;;;26.41;52.77;100278.91;1780426;79;21377;-57
2021/08/27 12:49:45;;;;;;;11.53;10.08;;;;;;;26.42;52.50;100271.30;1775108;78;21213;-56
2021/08/27 12:52:59;;;;;;;12.55;10.60;;;;;;;26.41;52.27;100271.88;1768272;79;21292;-56
2021/08/27 12:56:26;;;;;;;11.57;10.20;;;;;;;26.38;53.03;100273.00;1743244;80;21299;-58
2021/08/27 12:59:29;;;;;;;13.65;11.60;;;;;;;26.42;53.52;100276.36;1773329;79;21336;-56
2021/08/27 13:02:35;;;;;;;13.90;12.13;;;;;;;26.48;53.49;100271.02;1760380;80;21846;-56
2021/08/27 13:05:52;;;;;;;12.75;10.93;;;;;;;26.46;52.71;100271.84;1736114;81;21938;-57
2021/08/27 13:09:22;;;;;;;13.43;12.03;;;;;;;26.39;52.63;100273.27;1738220;81;21366;-56
2021/08/27 13:12:40;;;;;;;14.38;12.23;;;;;;;26.33;52.99;100277.20;1737287;82;21311;-56
2021/08/27 13:15:44;;;;;;;14.43;12.30;;;;;;;26.32;53.36;100279.75;1736858;82;21727;-57
2021/08/27 13:19:05;;;;;;;14.05;12.47;;;;;;;26.36;54.44;100279.45;1738028;81;21410;-56
2021/08/27 13:22:27;;;;;;;14.93;13.50;;;;;;;26.38;53.37;100276.66;1742232;81;21853;-57
2021/08/27 13:25:37;;;;;;;14.05;12.25;;;;;;;26.44;54.34;100285.35;1753833;80;21558;-58
2021/08/27 13:28:42;;;;;;;12.70;11.35;;;;;;;26.53;53.48;100291.22;1768907;79;21194;-58
2021/08/27 13:31:47;;;;;;;14.40;12.90;;;;;;;26.57;52.75;100285.34;1771402;79;21351;-57
2021/08/27 13:34:54;;;;;;;12.98;11.68;;;;;;;26.57;51.58;100280.27;1768725;79;21908;-56
2021/08/27 13:37:59;;;;;;;12.88;11.63;;;;;;;26.55;51.21;100283.36;1764331;79;21873;-56
2021/08/27 13:41:05;;;;;;;13.68;11.97;;;;;;;26.50;50.48;100276.34;1776467;79;21260;-57
2021/08/27 13:44:10;;;;;;;14.13;12.45;;;;;;;26.48;50.76;100276.36;1758147;80;21789;-57
2021/08/27 13:47:15;;;;;;;14.43;11.78;;;;;;;26.41;50.60;100271.03;1735298;82;21335;-56
2021/08/27 13:50:21;;;;;;;14.38;11.48;;;;;;;26.34;51.02;100269.05;1723082;82;21205;-56
2021/08/27 13:53:26;;;;;;;12.78;11.48;;;;;;;26.30;50.39;100274.97;1807948;79;21714;-56
2021/08/27 13:56:32;;;;;;;11.60;10.43;;;;;;;26.29;50.33;100278.91;1808683;79;21370;-56
2021/08/27 13:59:39;;;;;;;14.18;12.63;;;;;;;26.30;50.85;100280.58;1776200;79;21275;-56
2021/08/27 14:02:45;;;;;;;13.20;11.70;;;;;;;26.30;50.97;100281.44;1752365;81;21181;-56
2021/08/27 14:05:53;;;;;;;11.60;10.25;;;;;;;26.28;50.45;100278.61;1798893;79;21338;-55
2021/08/27 14:08:58;;;;;;;12.55;11.35;;;;;;;26.24;50.79;100279.72;1804878;78;21359;-55
2021/08/27 14:12:06;;;;;;;12.70;11.40;;;;;;;26.28;50.65;100278.61;1804982;79;21327;-55
2021/08/27 14:15:14;;;;;;;11.68;10.55;;;;;;;26.29;50.84;100274.12;1804636;78;21306;-55
2021/08/27 14:18:24;;;;;;;12.25;10.00;;;;;;;26.33;51.34;100269.64;1787942;78;21330;-56
2021/08/27 14:21:30;;;;;;;12.30;10.88;;;;;;;26.36;50.98;100275.23;1769045;80;21316;-55